サン=ドニ の空港の天気 - METARとTAF

ローラン・ギャロス空港 ( FMEE / RUN ) - レユニオン サン=ドニ
飛行場実況気象(Metar)
観測時間01/19 05:30 RET (01/19 01:30 UTC)
風向・風速東南東 4m/s
視程10km以上
天気現象
なし
気温26℃
湿度79%
気圧1009hPa
METARFMEE 190130Z AUTO 12007KT CAVOK 26/22 Q1009 TEMPO 2000 SHRA SCT020TCU
過去の天気等 Google飛行場航空写真 Wunderground天気予報

過去48時間のMETAR

飛行場予報(TAF)
発表時間: -
19日4時 RET ~ 19日8時 RET に 確率 40% で一時的に
視程2000m
天気現象しゅう雨
全天の4割程度の塔状積雲 雲底高度 610m
19日8時 RET ~ 19日10時 RET に徐々に
風向・風速東北東 5m/s
19日19時 RET ~ 19日21時 RET に徐々に
風向・風速南東 3m/s
20日8時 RET ~ 20日10時 RET に徐々に
風向・風速北東 5m/s
TAF
FMEE 182300Z 1900/2006 12008KT 9999 FEW026 BKN150
PROB40 TEMPO 1900/1904 2000 SHRA SCT020TCU
BECMG 1904/1906 06010KT
BECMG 1915/1917 14005KT
BECMG 2004/2006 05010KT